Time;durP1;ratioP1;P1;durP2;ratioP2;P2;SDS_P1;SDS_P2;PMS_P1;PMS_P2;Temp;Humidity;BMP_temperature;BMP_pressure;BME280_temperature;BME280_humidity;BME280_pressure;Samples;Min_cycle;Max_cycle;Signal;HPM_P1;HPM_P2
2022/04/22 00:01:28;;;;;;;25.33;15.23;;;;;;;;;;5055400;28;20666;-72
2022/04/22 00:03:54;;;;;;;26.27;15.30;;;;;;;;;;5033387;28;20392;-73
2022/04/22 00:06:21;;;;;;;25.73;14.70;;;;;;;;;;5041412;28;20381;-72
2022/04/22 00:08:47;;;;;;;26.97;15.27;;;;;;;;;;5034087;28;20049;-74
2022/04/22 00:11:29;;;;;;;24.87;14.80;;;;;;;;;;5038835;28;20109;-72
2022/04/22 00:13:55;;;;;;;24.70;15.13;;;;;;;;;;5041379;28;20275;-71
2022/04/22 00:16:21;;;;;;;26.53;15.00;;;;;;;;;;5036210;28;20051;-72
2022/04/22 00:18:47;;;;;;;25.63;14.07;;;;;;;;;;5040427;28;20028;-72
2022/04/22 00:21:13;;;;;;;30.23;15.50;;;;;;;;;;5051250;28;20596;-72
2022/04/22 00:23:39;;;;;;;30.73;16.00;;;;;;;;;;5053243;28;20029;-72
2022/04/22 00:26:05;;;;;;;31.57;15.63;;;;;;;;;;5037867;28;20438;-72
2022/04/22 00:28:31;;;;;;;27.73;15.23;;;;;;;;;;5037886;28;20033;-72
2022/04/22 00:30:58;;;;;;;31.23;16.07;;;;;;;;;;5037631;28;20040;-71
2022/04/22 00:33:24;;;;;;;26.80;14.97;;;;;;;;;;5040139;28;20025;-71
2022/04/22 00:35:49;;;;;;;29.27;15.93;;;;;;;;;;5038813;28;20021;-71
2022/04/22 00:38:15;;;;;;;28.50;15.27;;;;;;;;;;5043817;28;20034;-72
2022/04/22 00:40:41;;;;;;;27.83;14.77;;;;;;;;;;5036936;28;20024;-72
2022/04/22 00:43:53;;;;;;;24.50;14.77;;;;;;;;;;5039890;28;20029;-71
2022/04/22 00:46:18;;;;;;;23.88;13.50;;;;;;;;;;5039363;28;20478;-72
2022/04/22 00:48:44;;;;;;;23.50;13.77;;;;;;;;;;5042347;28;20056;-72
2022/04/22 00:51:12;;;;;;;26.23;13.50;;;;;;;;;;5038699;28;20451;-72
2022/04/22 00:53:44;;;;;;;29.00;14.77;;;;;;;;;;5037690;28;20033;-72
2022/04/22 00:56:11;;;;;;;27.03;13.03;;;;;;;;;;5040735;28;20403;-72
2022/04/22 00:58:39;;;;;;;23.30;12.63;;;;;;;;;;5022946;28;20473;-71
2022/04/22 01:01:05;;;;;;;25.47;14.80;;;;;;;;;;5060162;28;20028;-72
2022/04/22 01:03:31;;;;;;;23.87;13.20;;;;;;;;;;5041597;28;20029;-72
2022/04/22 01:11:31;;;;;;;21.00;12.83;;;;;;;;;;5038936;28;20107;-72
2022/04/22 01:13:59;;;;;;;26.23;13.87;;;;;;;;;;5042884;28;20063;-72
2022/04/22 01:16:26;;;;;;;23.87;14.63;;;;;;;;;;5043050;28;20033;-72
2022/04/22 01:18:52;;;;;;;23.23;13.50;;;;;;;;;;5037892;28;20160;-72
2022/04/22 01:21:18;;;;;;;25.30;13.70;;;;;;;;;;5044577;28;20072;-72
2022/04/22 01:23:44;;;;;;;24.23;13.70;;;;;;;;;;5057191;28;20121;-72
2022/04/22 01:26:10;;;;;;;24.53;14.20;;;;;;;;;;5037641;28;20041;-72
2022/04/22 01:28:36;;;;;;;26.57;14.37;;;;;;;;;;5057135;28;20036;-72
2022/04/22 01:31:03;;;;;;;26.50;13.93;;;;;;;;;;5038697;28;20114;-72
2022/04/22 01:33:29;;;;;;;23.27;14.83;;;;;;;;;;5042711;28;20086;-72
2022/04/22 01:35:55;;;;;;;24.27;13.97;;;;;;;;;;5038364;28;20048;-72
2022/04/22 01:38:20;;;;;;;25.40;13.63;;;;;;;;;;5057869;28;20401;-72
2022/04/22 01:40:46;;;;;;;22.80;13.70;;;;;;;;;;5038033;28;20041;-71
2022/04/22 01:43:12;;;;;;;23.73;14.23;;;;;;;;;;5043278;28;20039;-73
2022/04/22 01:45:38;;;;;;;28.27;14.60;;;;;;;;;;5036075;28;20444;-72
2022/04/22 01:48:04;;;;;;;25.13;13.77;;;;;;;;;;5042326;28;20028;-73
2022/04/22 01:50:30;;;;;;;24.13;13.73;;;;;;;;;;5035551;28;20029;-72
2022/04/22 01:52:58;;;;;;;27.87;14.80;;;;;;;;;;5035924;28;20033;-72
2022/04/22 01:55:26;;;;;;;25.33;13.63;;;;;;;;;;5058132;28;20588;-71
2022/04/22 01:57:53;;;;;;;29.13;14.03;;;;;;;;;;5036434;28;20393;-72
2022/04/22 02:00:18;;;;;;;25.73;12.97;;;;;;;;;;5057505;28;20110;-72
2022/04/22 02:02:45;;;;;;;23.07;12.93;;;;;;;;;;5035468;28;20032;-72
2022/04/22 02:05:10;;;;;;;22.90;12.37;;;;;;;;;;5037047;28;20465;-72
2022/04/22 02:07:36;;;;;;;27.57;14.00;;;;;;;;;;5035644;28;20029;-72
2022/04/22 02:10:03;;;;;;;22.53;12.83;;;;;;;;;;5035230;28;20080;-72
2022/04/22 02:12:28;;;;;;;24.17;13.03;;;;;;;;;;5042891;28;20521;-72
2022/04/22 02:14:54;;;;;;;21.50;12.53;;;;;;;;;;5035182;28;20490;-72
2022/04/22 02:17:19;;;;;;;22.80;13.07;;;;;;;;;;5036647;28;20108;-72
2022/04/22 02:19:45;;;;;;;22.77;13.27;;;;;;;;;;5042833;28;20047;-73
2022/04/22 02:22:11;;;;;;;22.20;13.07;;;;;;;;;;5038197;28;20029;-73
2022/04/22 02:24:36;;;;;;;28.20;14.80;;;;;;;;;;5041078;28;20033;-71
2022/04/22 02:29:48;;;;;;;24.17;13.27;;;;;;;;;;5038531;28;20044;-72
2022/04/22 02:32:14;;;;;;;26.67;13.53;;;;;;;;;;5055678;28;20086;-71
2022/04/22 02:34:40;;;;;;;24.13;13.07;;;;;;;;;;5042790;28;20568;-72
2022/04/22 02:37:07;;;;;;;23.83;12.37;;;;;;;;;;5037013;28;20191;-72
2022/04/22 02:39:32;;;;;;;23.30;13.17;;;;;;;;;;5057404;28;20025;-71
2022/04/22 02:47:26;;;;;;;27.57;13.27;;;;;;;;;;5036171;28;20079;-72
2022/04/22 02:49:53;;;;;;;25.93;14.17;;;;;;;;;;5024323;28;20432;-72
2022/04/22 02:52:20;;;;;;;20.77;13.27;;;;;;;;;;5034779;28;20086;-73
2022/04/22 02:54:45;;;;;;;24.67;13.73;;;;;;;;;;5035544;28;20037;-73
2022/04/22 02:57:11;;;;;;;23.63;14.13;;;;;;;;;;5036026;28;20035;-72
2022/04/22 02:59:39;;;;;;;28.10;17.73;;;;;;;;;;5034303;28;20040;-71
2022/04/22 03:02:06;;;;;;;22.97;13.77;;;;;;;;;;5040968;28;20115;-71
2022/04/22 03:04:31;;;;;;;27.83;13.30;;;;;;;;;;5042288;28;20029;-71
2022/04/22 03:06:57;;;;;;;27.43;15.27;;;;;;;;;;5030799;28;20056;-71
2022/04/22 03:09:23;;;;;;;26.43;14.43;;;;;;;;;;5035043;28;20079;-72
2022/04/22 03:11:49;;;;;;;25.33;14.03;;;;;;;;;;5041757;28;20051;-71
2022/04/22 03:14:18;;;;;;;26.30;14.70;;;;;;;;;;5050631;28;20397;-71
2022/04/22 03:16:44;;;;;;;28.10;15.43;;;;;;;;;;5040586;28;20033;-71
2022/04/22 03:19:12;;;;;;;23.07;13.50;;;;;;;;;;5033963;28;20025;-72
2022/04/22 03:21:38;;;;;;;23.00;13.00;;;;;;;;;;5035200;28;20205;-72
2022/04/22 03:24:04;;;;;;;28.20;15.23;;;;;;;;;;5056972;28;20183;-72
2022/04/22 03:26:29;;;;;;;27.77;15.53;;;;;;;;;;5035039;28;20128;-72
2022/04/22 03:28:57;;;;;;;28.43;14.80;;;;;;;;;;5035241;28;20032;-72
2022/04/22 03:31:23;;;;;;;26.57;14.77;;;;;;;;;;5041457;28;20078;-71
2022/04/22 03:33:49;;;;;;;26.33;13.20;;;;;;;;;;5050414;28;20068;-72
2022/04/22 03:36:14;;;;;;;28.53;15.00;;;;;;;;;;5041363;28;20064;-71
2022/04/22 03:38:40;;;;;;;28.27;14.50;;;;;;;;;;5049901;28;20040;-71
2022/04/22 03:41:07;;;;;;;27.53;15.00;;;;;;;;;;5039898;28;20040;-71
2022/04/22 03:43:32;;;;;;;26.77;14.67;;;;;;;;;;5050222;28;20022;-72
2022/04/22 03:45:59;;;;;;;29.83;15.60;;;;;;;;;;5022822;28;20282;-71
2022/04/22 03:48:25;;;;;;;30.43;16.50;;;;;;;;;;5056554;28;20039;-72
2022/04/22 03:50:50;;;;;;;31.73;17.43;;;;;;;;;;5056580;28;20041;-72
2022/04/22 03:53:16;;;;;;;27.30;15.60;;;;;;;;;;5050829;28;20037;-72
2022/04/22 03:55:44;;;;;;;29.60;15.83;;;;;;;;;;5040351;28;20063;-72
2022/04/22 03:58:10;;;;;;;28.10;15.23;;;;;;;;;;5035371;28;20025;-72
2022/04/22 04:00:49;;;;;;;28.23;14.77;;;;;;;;;;5033257;28;20119;-72
2022/04/22 04:03:20;;;;;;;28.37;15.87;;;;;;;;;;5033829;28;20116;-71
2022/04/22 04:05:49;;;;;;;28.70;16.30;;;;;;;;;;5038433;28;20505;-72
2022/04/22 04:08:17;;;;;;;27.27;15.40;;;;;;;;;;5016729;28;20057;-72
2022/04/22 04:16:13;;;;;;;31.53;17.07;;;;;;;;;;5034693;28;20084;-73
2022/04/22 04:18:39;;;;;;;29.67;15.07;;;;;;;;;;5040396;28;20340;-73
2022/04/22 04:23:56;;;;;;;31.07;18.00;;;;;;;;;;5033245;28;20040;-72
2022/04/22 04:26:24;;;;;;;29.30;16.57;;;;;;;;;;5041214;28;20045;-73
2022/04/22 04:28:51;;;;;;;37.57;16.80;;;;;;;;;;5036294;28;20029;-72
2022/04/22 04:31:19;;;;;;;31.50;16.03;;;;;;;;;;5052154;28;20037;-72
2022/04/22 04:33:46;;;;;;;30.97;16.37;;;;;;;;;;5038191;28;20029;-72
2022/04/22 04:36:12;;;;;;;32.20;15.93;;;;;;;;;;5036794;28;20091;-72
2022/04/22 04:38:40;;;;;;;28.27;16.43;;;;;;;;;;5029571;28;20843;-72
2022/04/22 04:41:08;;;;;;;32.23;16.40;;;;;;;;;;5049239;28;20043;-71
2022/04/22 04:43:35;;;;;;;26.63;15.73;;;;;;;;;;5028245;28;20040;-72
2022/04/22 04:46:02;;;;;;;28.87;14.90;;;;;;;;;;5038434;28;20060;-71
2022/04/22 04:48:28;;;;;;;32.00;16.93;;;;;;;;;;5035549;28;20102;-71
2022/04/22 04:50:55;;;;;;;28.37;16.63;;;;;;;;;;5039446;28;20041;-72
2022/04/22 04:53:25;;;;;;;30.43;17.07;;;;;;;;;;5056134;28;20071;-72
2022/04/22 04:55:52;;;;;;;29.70;16.80;;;;;;;;;;5050546;28;20037;-72
2022/04/22 04:58:19;;;;;;;31.07;16.90;;;;;;;;;;5021505;28;20155;-73
2022/04/22 05:00:47;;;;;;;36.77;18.03;;;;;;;;;;5050565;28;20040;-73
2022/04/22 05:03:13;;;;;;;29.60;17.03;;;;;;;;;;5034494;28;20034;-73
2022/04/22 05:05:43;;;;;;;31.13;16.50;;;;;;;;;;5033958;28;20041;-73
2022/04/22 05:08:09;;;;;;;33.80;17.30;;;;;;;;;;5028465;28;20072;-73
2022/04/22 05:10:36;;;;;;;29.63;16.07;;;;;;;;;;5055150;28;20144;-73
2022/04/22 05:13:03;;;;;;;30.13;17.00;;;;;;;;;;5033843;28;20060;-71
2022/04/22 05:15:33;;;;;;;30.37;17.53;;;;;;;;;;5028373;28;20025;-76
2022/04/22 05:18:02;;;;;;;29.07;17.03;;;;;;;;;;5034331;28;20109;-74
2022/04/22 05:20:27;;;;;;;31.33;17.03;;;;;;;;;;5037723;28;20024;-73
2022/04/22 05:22:54;;;;;;;33.03;17.43;;;;;;;;;;5046239;28;20042;-73
2022/04/22 05:25:20;;;;;;;43.57;16.93;;;;;;;;;;5035603;28;20025;-72
2022/04/22 05:27:47;;;;;;;29.27;16.43;;;;;;;;;;5035628;28;20276;-74
2022/04/22 05:33:06;;;;;;;28.20;14.90;;;;;;;;;;5043310;28;20112;-73
2022/04/22 05:35:32;;;;;;;29.80;16.08;;;;;;;;;;5034210;28;20232;-74
2022/04/22 05:38:04;;;;;;;32.27;17.30;;;;;;;;;;5040225;28;20032;-74
2022/04/22 05:40:38;;;;;;;30.43;15.70;;;;;;;;;;5039970;28;20021;-74
2022/04/22 05:43:08;;;;;;;29.23;15.80;;;;;;;;;;5063899;28;20029;-74
2022/04/22 05:45:38;;;;;;;30.67;16.30;;;;;;;;;;5042882;28;20596;-74
2022/04/22 05:48:11;;;;;;;26.13;14.97;;;;;;;;;;5048713;28;20033;-74
2022/04/22 05:50:37;;;;;;;26.13;15.40;;;;;;;;;;5042354;28;20029;-75
2022/04/22 05:53:04;;;;;;;27.00;14.53;;;;;;;;;;5024961;28;20033;-73
2022/04/22 05:55:34;;;;;;;25.20;14.13;;;;;;;;;;5041500;28;20037;-72
2022/04/22 05:58:00;;;;;;;25.63;14.47;;;;;;;;;;5035291;28;20041;-72
2022/04/22 06:00:30;;;;;;;21.07;13.53;;;;;;;;;;5044740;28;20491;-71
2022/04/22 06:02:58;;;;;;;21.37;13.40;;;;;;;;;;5052939;28;20045;-70
2022/04/22 06:05:25;;;;;;;25.60;14.00;;;;;;;;;;5051878;28;20032;-72
2022/04/22 06:10:31;;;;;;;27.50;14.60;;;;;;;;;;5058002;28;20468;-73
2022/04/22 06:10:42;;;;;;;26.73;13.40;;;;;;;;;;5043996;28;20065;-73
2022/04/22 06:13:10;;;;;;;21.50;13.93;;;;;;;;;;5037475;28;20037;-73
2022/04/22 06:15:41;;;;;;;34.87;16.70;;;;;;;;;;5044796;28;20373;-72
2022/04/22 06:18:11;;;;;;;26.83;14.37;;;;;;;;;;5021386;28;20067;-72
2022/04/22 06:20:38;;;;;;;26.37;14.37;;;;;;;;;;5043939;28;20033;-74
2022/04/22 06:23:04;;;;;;;27.23;14.40;;;;;;;;;;5042803;28;20033;-72
2022/04/22 06:25:30;;;;;;;26.47;15.37;;;;;;;;;;5034886;28;20028;-71
2022/04/22 06:27:58;;;;;;;26.73;15.07;;;;;;;;;;5054153;28;20047;-76
2022/04/22 06:30:25;;;;;;;39.83;19.40;;;;;;;;;;5036678;28;20037;-74
2022/04/22 06:33:03;;;;;;;28.07;15.50;;;;;;;;;;5036022;28;21045;-74
2022/04/22 06:35:35;;;;;;;33.60;15.17;;;;;;;;;;5034284;28;20037;-73
2022/04/22 06:38:07;;;;;;;24.53;15.00;;;;;;;;;;5044133;28;20034;-73
2022/04/22 06:49:33;;;;;;;29.00;13.33;;;;;;;;;;5021043;28;20029;-74
2022/04/22 06:52:01;;;;;;;27.63;13.93;;;;;;;;;;5034735;28;20524;-74
2022/04/22 06:54:32;;;;;;;23.13;13.63;;;;;;;;;;5033382;28;20060;-75
2022/04/22 06:56:59;;;;;;;22.70;13.33;;;;;;;;;;5036977;28;20047;-77
2022/04/22 06:59:31;;;;;;;22.93;12.60;;;;;;;;;;5038741;28;20444;-76
2022/04/22 07:01:58;;;;;;;25.55;14.32;;;;;;;;;;5035685;28;20053;-74
2022/04/22 07:04:25;;;;;;;24.60;13.10;;;;;;;;;;5036919;28;20021;-75
2022/04/22 07:06:53;;;;;;;24.67;13.40;;;;;;;;;;5030891;28;20423;-73
2022/04/22 07:09:19;;;;;;;20.07;12.37;;;;;;;;;;5035829;28;20040;-73
2022/04/22 07:11:46;;;;;;;21.77;12.97;;;;;;;;;;5039376;28;20049;-75
2022/04/22 07:14:16;;;;;;;22.00;13.60;;;;;;;;;;5015481;28;20508;-75
2022/04/22 07:16:45;;;;;;;25.87;13.17;;;;;;;;;;5046138;28;20048;-73
2022/04/22 07:19:15;;;;;;;22.00;13.00;;;;;;;;;;5035019;28;20029;-73
2022/04/22 07:21:43;;;;;;;22.55;11.70;;;;;;;;;;5035604;28;20037;-74
2022/04/22 07:24:09;;;;;;;22.85;13.20;;;;;;;;;;5055609;28;20048;-74
2022/04/22 07:26:45;;;;;;;17.80;11.32;;;;;;;;;;5032093;28;20029;-74
2022/04/22 07:29:14;;;;;;;20.63;13.07;;;;;;;;;;5025802;28;20040;-73
2022/04/22 07:31:43;;;;;;;21.67;12.50;;;;;;;;;;5028956;28;20033;-74
2022/04/22 07:34:12;;;;;;;22.35;13.00;;;;;;;;;;5037167;28;20041;-72
2022/04/22 07:36:40;;;;;;;21.77;11.85;;;;;;;;;;5042010;28;20055;-75
2022/04/22 07:39:06;;;;;;;18.73;12.38;;;;;;;;;;5035980;28;20032;-73
2022/04/22 07:41:36;;;;;;;23.33;13.85;;;;;;;;;;5031861;28;20023;-73
2022/04/22 07:47:08;;;;;;;19.85;12.35;;;;;;;;;;5039062;28;20420;-74
2022/04/22 07:49:37;;;;;;;19.75;12.15;;;;;;;;;;5012252;28;20030;-74
2022/04/22 07:52:03;;;;;;;20.27;12.30;;;;;;;;;;5031528;28;20029;-73
2022/04/22 07:54:29;;;;;;;20.90;12.15;;;;;;;;;;5034877;28;20028;-72
2022/04/22 07:56:56;;;;;;;20.35;12.35;;;;;;;;;;5044439;28;20405;-75
2022/04/22 07:59:27;;;;;;;21.00;12.95;;;;;;;;;;5033900;28;20056;-73
2022/04/22 08:01:54;;;;;;;19.85;13.20;;;;;;;;;;5034872;28;20383;-76
2022/04/22 08:04:20;;;;;;;24.00;14.53;;;;;;;;;;5019656;28;20073;-75
2022/04/22 08:06:46;;;;;;;19.42;12.60;;;;;;;;;;5024915;28;20047;-73
2022/04/22 08:09:14;;;;;;;21.70;13.68;;;;;;;;;;5025726;28;20068;-74
2022/04/22 08:11:42;;;;;;;24.73;14.77;;;;;;;;;;5044524;28;20045;-73
2022/04/22 08:14:13;;;;;;;23.00;14.17;;;;;;;;;;5030048;28;20032;-74
2022/04/22 08:16:40;;;;;;;29.85;14.05;;;;;;;;;;5028356;28;20029;-74
2022/04/22 08:19:06;;;;;;;25.88;13.85;;;;;;;;;;5028195;28;20036;-73
2022/04/22 08:21:35;;;;;;;27.33;14.17;;;;;;;;;;5035575;28;20029;-73
2022/04/22 08:24:10;;;;;;;20.65;12.85;;;;;;;;;;5025405;28;20071;-74
2022/04/22 08:26:37;;;;;;;20.98;12.95;;;;;;;;;;5011276;28;20037;-72
2022/04/22 08:29:06;;;;;;;21.80;13.30;;;;;;;;;;5032269;28;20110;-74
2022/04/22 08:31:31;;;;;;;24.35;12.18;;;;;;;;;;5027007;28;20029;-74
2022/04/22 08:33:59;;;;;;;22.47;11.60;;;;;;;;;;5031556;28;20450;-74
2022/04/22 08:36:29;;;;;;;25.00;13.18;;;;;;;;;;5032872;28;20059;-74
2022/04/22 08:38:57;;;;;;;23.55;12.60;;;;;;;;;;5007896;28;20052;-76
2022/04/22 08:41:32;;;;;;;23.55;13.23;;;;;;;;;;5024479;28;20037;-75
2022/04/22 08:44:01;;;;;;;20.73;14.07;;;;;;;;;;5025194;28;20028;-73
2022/04/22 08:52:02;;;;;;;23.38;12.85;;;;;;;;;;5026380;28;20048;-74
2022/04/22 08:54:29;;;;;;;21.23;13.98;;;;;;;;;;5025628;28;20540;-72
2022/04/22 08:56:56;;;;;;;19.73;12.60;;;;;;;;;;5031351;28;20029;-73
2022/04/22 08:59:25;;;;;;;24.15;13.05;;;;;;;;;;5031536;28;20357;-72
2022/04/22 09:01:57;;;;;;;22.58;12.82;;;;;;;;;;5021809;28;20350;-72
2022/04/22 09:04:28;;;;;;;;;;;;;;;;;;5026669;28;20717;-73
2022/04/22 09:06:55;;;;;;;20.92;12.70;;;;;;;;;;5029232;28;19921;-73
2022/04/22 09:09:33;;;;;;;23.75;13.23;;;;;;;;;;5026397;28;20025;-75
2022/04/22 09:12:13;;;;;;;26.70;13.60;;;;;;;;;;5031500;28;20041;-73
2022/04/22 09:14:46;;;;;;;24.90;13.68;;;;;;;;;;5030818;28;20037;-75
2022/04/22 09:17:37;;;;;;;27.58;14.35;;;;;;;;;;5031835;28;20089;-72
2022/04/22 09:20:19;;;;;;;24.02;13.70;;;;;;;;;;5030420;28;20125;-74
2022/04/22 09:22:46;;;;;;;26.77;14.30;;;;;;;;;;5035182;28;20041;-72
2022/04/22 09:25:25;;;;;;;24.83;14.48;;;;;;;;;;5029539;28;20032;-74
2022/04/22 09:27:51;;;;;;;22.52;14.57;;;;;;;;;;5032930;28;20134;-74
2022/04/22 09:30:17;;;;;;;24.98;14.50;;;;;;;;;;5027068;28;20520;-74
2022/04/22 09:32:44;;;;;;;24.85;14.55;;;;;;;;;;5028815;28;20042;-74
2022/04/22 09:35:19;;;;;;;25.38;14.27;;;;;;;;;;5031495;28;20364;-74
2022/04/22 09:43:42;;;;;;;23.25;13.70;;;;;;;;;;5031482;28;20389;-73
2022/04/22 09:46:22;;;;;;;21.65;13.30;;;;;;;;;;5027350;28;20033;-73
2022/04/22 09:48:48;;;;;;;23.17;14.88;;;;;;;;;;5032688;28;20036;-73
2022/04/22 09:51:38;;;;;;;24.13;14.18;;;;;;;;;;5027071;28;20428;-73
2022/04/22 09:54:07;;;;;;;26.70;14.07;;;;;;;;;;5034201;28;20043;-73
2022/04/22 09:56:33;;;;;;;29.30;14.25;;;;;;;;;;5013913;28;20089;-72
2022/04/22 09:59:22;;;;;;;31.92;17.65;;;;;;;;;;5028767;28;20025;-77
2022/04/22 10:01:52;;;;;;;24.05;14.60;;;;;;;;;;5032838;28;20033;-75
2022/04/22 10:04:19;;;;;;;27.20;14.80;;;;;;;;;;5037655;28;20068;-72
2022/04/22 10:06:45;;;;;;;33.03;16.00;;;;;;;;;;5034505;28;20052;-74
2022/04/22 10:09:14;;;;;;;22.05;13.80;;;;;;;;;;5026849;28;20028;-76
2022/04/22 10:11:41;;;;;;;34.08;17.25;;;;;;;;;;5022197;28;20606;-76
2022/04/22 10:14:14;;;;;;;31.30;15.60;;;;;;;;;;5032110;28;20029;-73
2022/04/22 10:16:43;;;;;;;24.25;14.23;;;;;;;;;;5031436;28;20037;-73
2022/04/22 10:19:12;;;;;;;28.38;14.55;;;;;;;;;;5032944;28;20144;-74
2022/04/22 10:21:46;;;;;;;23.13;14.45;;;;;;;;;;5026012;28;20110;-74
2022/04/22 10:24:13;;;;;;;29.60;16.08;;;;;;;;;;5032840;28;20041;-73
2022/04/22 10:26:39;;;;;;;24.10;15.07;;;;;;;;;;5038070;28;20389;-74
2022/04/22 10:29:09;;;;;;;21.60;14.00;;;;;;;;;;5029595;28;20393;-75
2022/04/22 10:31:39;;;;;;;22.50;13.38;;;;;;;;;;5030638;28;20298;-72
2022/04/22 10:34:11;;;;;;;28.75;14.60;;;;;;;;;;5035141;28;20129;-74
2022/04/22 10:36:40;;;;;;;;;;;;;;;;;;5033467;28;20048;-74
2022/04/22 10:39:06;;;;;;;27.50;12.93;;;;;;;;;;5023035;28;20043;-76
2022/04/22 10:41:46;;;;;;;25.17;15.45;;;;;;;;;;5025398;28;20025;-76
2022/04/22 10:47:15;;;;;;;26.85;16.13;;;;;;;;;;5028590;28;20111;-75
2022/04/22 10:49:45;;;;;;;24.58;15.35;;;;;;;;;;5025553;28;20500;-74
2022/04/22 10:52:21;;;;;;;24.88;14.60;;;;;;;;;;5030333;28;20040;-73
2022/04/22 10:54:53;;;;;;;25.73;14.60;;;;;;;;;;5030983;28;20025;-72
2022/04/22 10:57:24;;;;;;;30.70;16.88;;;;;;;;;;5029732;28;20037;-73
2022/04/22 11:00:11;;;;;;;26.63;15.80;;;;;;;;;;5026181;28;20470;-74
2022/04/22 11:02:42;;;;;;;36.75;16.77;;;;;;;;;;5020762;28;20537;-75
2022/04/22 11:05:20;;;;;;;26.67;13.52;;;;;;;;;;5035022;28;20040;-74
2022/04/22 11:07:56;;;;;;;22.80;15.15;;;;;;;;;;5030758;28;20097;-71
2022/04/22 11:10:44;;;;;;;24.92;15.55;;;;;;;;;;5029821;28;20102;-74
2022/04/22 11:13:27;;;;;;;22.27;14.15;;;;;;;;;;5033443;28;20110;-72
2022/04/22 11:15:57;;;;;;;21.55;13.23;;;;;;;;;;5028721;28;20037;-75
2022/04/22 11:18:26;;;;;;;18.23;12.30;;;;;;;;;;5022327;28;20493;-76
2022/04/22 11:20:58;;;;;;;18.25;10.98;;;;;;;;;;5012288;28;20091;-73
2022/04/22 11:23:33;;;;;;;14.85;10.88;;;;;;;;;;5032214;28;20155;-74
2022/04/22 11:26:00;;;;;;;14.93;9.75;;;;;;;;;;5037556;28;20140;-73
2022/04/22 11:28:26;;;;;;;17.27;9.15;;;;;;;;;;4996471;28;20041;-72
2022/04/22 11:30:54;;;;;;;13.73;9.05;;;;;;;;;;5026770;28;20024;-72
2022/04/22 11:33:24;;;;;;;14.60;9.32;;;;;;;;;;5029912;28;20457;-73
2022/04/22 11:35:57;;;;;;;14.75;9.82;;;;;;;;;;5029986;28;20029;-74
2022/04/22 11:38:23;;;;;;;13.10;9.15;;;;;;;;;;5029395;28;20130;-73
2022/04/22 11:40:52;;;;;;;19.08;11.13;;;;;;;;;;5029518;28;20118;-72
2022/04/22 11:43:18;;;;;;;16.05;11.27;;;;;;;;;;5032418;28;20041;-75
2022/04/22 11:45:50;;;;;;;18.77;10.48;;;;;;;;;;5028658;28;20029;-75
2022/04/22 11:48:20;;;;;;;15.70;10.70;;;;;;;;;;5010979;28;20118;-75
2022/04/22 11:50:47;;;;;;;14.25;9.77;;;;;;;;;;5028033;28;20083;-75
2022/04/22 11:53:20;;;;;;;26.55;12.57;;;;;;;;;;5027607;28;20040;-73
2022/04/22 11:55:48;;;;;;;17.55;10.55;;;;;;;;;;5027656;28;20041;-75
2022/04/22 11:58:23;;;;;;;19.02;11.30;;;;;;;;;;5028850;28;20425;-75
2022/04/22 12:06:23;;;;;;;18.80;11.95;;;;;;;;;;5031790;28;20064;-75
2022/04/22 12:08:54;;;;;;;32.45;13.52;;;;;;;;;;5021506;28;20064;-75
2022/04/22 12:11:21;;;;;;;28.92;13.18;;;;;;;;;;5028344;28;20194;-74
2022/04/22 12:13:48;;;;;;;22.42;12.75;;;;;;;;;;5024423;28;20033;-75
2022/04/22 12:16:27;;;;;;;23.08;13.80;;;;;;;;;;5030108;28;20040;-75
2022/04/22 12:18:55;;;;;;;22.60;12.95;;;;;;;;;;5030237;28;20115;-74
2022/04/22 12:21:22;;;;;;;24.83;13.48;;;;;;;;;;5030383;28;20028;-77
2022/04/22 12:23:52;;;;;;;25.33;14.48;;;;;;;;;;5028133;28;20027;-77
2022/04/22 12:26:22;;;;;;;28.73;15.80;;;;;;;;;;5041375;28;20033;-76
2022/04/22 12:29:13;;;;;;;26.30;13.75;;;;;;;;;;5030466;28;20292;-75
2022/04/22 12:31:44;;;;;;;32.30;14.80;;;;;;;;;;5026897;28;20048;-75
2022/04/22 12:34:12;;;;;;;26.55;14.00;;;;;;;;;;5032504;28;20033;-71
2022/04/22 12:36:56;;;;;;;27.58;15.10;;;;;;;;;;5030143;28;20136;-72
2022/04/22 12:39:44;;;;;;;30.23;15.93;;;;;;;;;;5012976;28;20774;-73
2022/04/22 12:42:22;;;;;;;20.23;12.95;;;;;;;;;;5033019;28;20680;-75
2022/04/22 12:54:07;;;;;;;20.25;13.73;;;;;;;;;;5060918;28;20044;-73
2022/04/22 12:56:34;;;;;;;24.25;14.57;;;;;;;;;;5063273;28;20032;-74
2022/04/22 12:59:05;;;;;;;23.38;14.18;;;;;;;;;;5043022;28;20049;-73
2022/04/22 13:01:38;;;;;;;25.02;16.15;;;;;;;;;;5036744;28;20156;-75
2022/04/22 13:04:05;;;;;;;21.73;13.98;;;;;;;;;;5029997;28;20027;-76
2022/04/22 13:06:42;;;;;;;20.80;13.95;;;;;;;;;;5036046;28;20043;-75
2022/04/22 13:09:09;;;;;;;24.95;14.32;;;;;;;;;;5053761;28;20025;-74
2022/04/22 13:11:35;;;;;;;23.48;15.05;;;;;;;;;;5051018;28;20064;-77
2022/04/22 13:14:03;;;;;;;24.92;15.63;;;;;;;;;;5054751;28;20041;-77
2022/04/22 13:16:28;;;;;;;27.98;17.48;;;;;;;;;;5040401;28;20051;-74
2022/04/22 13:18:58;;;;;;;24.30;13.95;;;;;;;;;;5041118;28;20020;-76
2022/04/22 13:21:26;;;;;;;24.75;15.98;;;;;;;;;;5039415;28;20032;-75
2022/04/22 13:23:52;;;;;;;21.67;14.52;;;;;;;;;;5045423;28;20029;-75
2022/04/22 13:26:18;;;;;;;27.65;14.63;;;;;;;;;;5037847;28;20465;-76
2022/04/22 13:28:44;;;;;;;29.77;15.00;;;;;;;;;;5043128;28;20725;-76
2022/04/22 13:31:09;;;;;;;28.90;15.88;;;;;;;;;;5054019;28;20025;-75
2022/04/22 13:33:35;;;;;;;22.17;15.35;;;;;;;;;;5043097;28;20085;-75
2022/04/22 13:36:03;;;;;;;23.70;14.48;;;;;;;;;;5034848;28;20735;-74
2022/04/22 13:38:30;;;;;;;22.10;14.02;;;;;;;;;;5037771;28;20733;-74
2022/04/22 13:40:56;;;;;;;19.55;13.27;;;;;;;;;;5032641;28;20038;-75
2022/04/22 13:43:22;;;;;;;27.70;14.77;;;;;;;;;;5042867;28;20031;-76
2022/04/22 13:54:01;;;;;;;29.15;15.35;;;;;;;;;;5041941;28;20030;-74
2022/04/22 13:56:27;;;;;;;24.13;14.23;;;;;;;;;;5043309;28;20032;-76
2022/04/22 13:58:52;;;;;;;26.65;14.73;;;;;;;;;;5060970;28;20033;-73
2022/04/22 14:01:18;;;;;;;22.70;14.85;;;;;;;;;;5041214;28;20095;-73
2022/04/22 14:03:44;;;;;;;25.95;14.60;;;;;;;;;;5041701;28;20041;-75
2022/04/22 14:06:10;;;;;;;22.40;15.00;;;;;;;;;;5044725;28;20060;-75
2022/04/22 14:08:37;;;;;;;22.38;14.20;;;;;;;;;;5061681;28;20064;-74
2022/04/22 14:11:04;;;;;;;27.50;16.95;;;;;;;;;;5038885;28;20041;-74
2022/04/22 14:13:32;;;;;;;23.25;13.95;;;;;;;;;;5041933;28;20492;-74
2022/04/22 14:15:58;;;;;;;20.70;13.82;;;;;;;;;;5045754;28;20028;-76
2022/04/22 14:18:26;;;;;;;24.80;15.35;;;;;;;;;;5047761;28;20025;-74
2022/04/22 14:20:52;;;;;;;23.60;14.90;;;;;;;;;;5039297;28;20720;-74
2022/04/22 14:23:17;;;;;;;23.92;15.60;;;;;;;;;;5034066;28;20025;-73
2022/04/22 14:25:43;;;;;;;25.35;15.80;;;;;;;;;;5039015;28;20029;-76
2022/04/22 14:28:08;;;;;;;29.02;17.67;;;;;;;;;;5038921;28;20053;-76
2022/04/22 14:30:34;;;;;;;28.05;17.13;;;;;;;;;;5046940;28;20490;-75
2022/04/22 14:32:59;;;;;;;24.38;15.25;;;;;;;;;;5042141;28;20025;-75
2022/04/22 14:35:25;;;;;;;24.23;15.05;;;;;;;;;;5039027;28;20087;-75
2022/04/22 14:37:51;;;;;;;25.70;15.85;;;;;;;;;;5037109;28;20071;-76
2022/04/22 14:40:17;;;;;;;50.53;16.48;;;;;;;;;;5041874;28;20013;-78
2022/04/22 14:42:44;;;;;;;23.15;16.02;;;;;;;;;;5053699;28;20035;-76
2022/04/22 14:45:10;;;;;;;24.48;15.18;;;;;;;;;;5042281;28;20044;-75
2022/04/22 14:47:36;;;;;;;22.48;14.18;;;;;;;;;;5040254;28;20033;-75
2022/04/22 14:50:04;;;;;;;19.52;12.50;;;;;;;;;;5035073;28;20033;-75
2022/04/22 14:52:30;;;;;;;25.63;14.73;;;;;;;;;;5036523;28;20025;-75
2022/04/22 14:54:58;;;;;;;22.35;13.60;;;;;;;;;;5039233;28;20029;-75
2022/04/22 14:57:24;;;;;;;23.58;13.73;;;;;;;;;;5042145;28;20030;-76
2022/04/22 14:59:51;;;;;;;37.67;14.73;;;;;;;;;;5038692;28;20036;-75
2022/04/22 15:02:17;;;;;;;21.42;13.63;;;;;;;;;;5038107;28;20032;-74
2022/04/22 15:04:51;;;;;;;22.63;12.70;;;;;;;;;;5049279;28;20029;-74
2022/04/22 15:07:22;;;;;;;30.63;14.77;;;;;;;;;;5031381;28;20044;-74
2022/04/22 15:09:49;;;;;;;22.07;13.07;;;;;;;;;;5060715;28;20029;-75
2022/04/22 15:12:18;;;;;;;31.40;12.65;;;;;;;;;;5056894;28;20036;-75
2022/04/22 15:14:44;;;;;;;20.65;11.20;;;;;;;;;;5033738;28;20031;-75
2022/04/22 15:17:11;;;;;;;23.58;13.05;;;;;;;;;;5038995;28;20060;-74
2022/04/22 15:25:26;;;;;;;18.45;12.50;;;;;;;;;;5044079;28;20141;-74
2022/04/22 15:27:52;;;;;;;30.08;13.38;;;;;;;;;;5028714;28;20520;-73
2022/04/22 15:30:57;;;;;;;24.48;12.27;;;;;;;;;;5043267;28;20406;-75
2022/04/22 15:33:23;;;;;;;20.23;12.43;;;;;;;;;;5040178;28;20025;-74
2022/04/22 15:35:49;;;;;;;19.40;11.93;;;;;;;;;;5056427;28;20254;-74
2022/04/22 15:38:15;;;;;;;17.00;11.55;;;;;;;;;;5049018;28;20041;-74
2022/04/22 15:40:45;;;;;;;17.52;13.15;;;;;;;;;;5039200;28;20041;-75
2022/04/22 15:43:12;;;;;;;20.38;13.30;;;;;;;;;;5041732;28;20110;-76
2022/04/22 15:45:39;;;;;;;24.85;14.93;;;;;;;;;;5033816;28;20044;-75
2022/04/22 15:48:06;;;;;;;18.13;12.48;;;;;;;;;;5038126;28;20209;-75